EST,Max TemperatureF,Mean TemperatureF,Min TemperatureF,Max Dew PointF,MeanDew PointF,Min DewpointF,Max Humidity, Mean Humidity, Min Humidity, Max Sea Level PressureIn, Mean Sea Level PressureIn, Min Sea Level PressureIn, Max VisibilityMiles, Mean VisibilityMiles, Min VisibilityMiles, Max Wind SpeedMPH, Mean Wind SpeedMPH, Max Gust SpeedMPH,PrecipitationIn, CloudCover, Events, WindDirDegrees
2014-1-1,58,55,51,58,55,48,100,95,89,30.32,30.22,30.10,10,5,2,10,5,14,0.82,8,Rain,55
2014-1-2,65,59,52,63,58,46,100,92,83,30.06,29.95,29.81,10,6,1,23,6,32,1.90,8,Rain,336
2014-1-3,52,42,32,41,24,19,83,59,34,30.37,30.23,30.03,10,10,10,21,10,31,0.00,0,,1
2014-1-4,59,46,33,50,41,24,96,82,67,30.32,30.24,30.13,10,9,6,15,7,18,0.00,4,,28
2014-1-5,76,64,51,62,56,50,96,78,60,30.12,30.04,29.95,10,8,4,10,3,13,0.00,3,,106
2014-1-6,66,51,36,63,49,16,100,69,37,30.39,30.04,29.91,10,8,2,24,12,31,0.05,5,Rain,262
2014-1-7,41,33,25,17,9,4,51,38,24,30.53,30.46,30.38,10,10,10,17,9,22,0.00,0,,358
2014-1-8,53,42,30,45,31,10,86,65,43,30.49,30.43,30.38,10,10,9,15,8,19,T,4,,18
2014-1-9,65,57,48,62,55,43,97,89,80,30.39,30.30,30.26,10,8,2,16,7,20,0.17,8,Rain,51
2014-1-10,79,70,61,69,66,61,100,84,67,30.25,30.15,30.06,10,5,0,13,3,15,T,8,Fog-Rain,109
2014-1-11,78,70,62,69,65,61,100,84,67,30.08,29.98,29.86,10,6,0,28,11,37,0.28,7,Fog-Rain-Thunderstorm,206
2014-1-12,66,54,42,61,41,33,90,60,29,30.24,30.15,29.99,10,10,9,16,5,27,0.00,1,,333
2014-1-13,74,57,39,63,52,37,96,76,56,30.19,30.08,29.92,10,10,9,17,5,22,T,3,Rain,176
2014-1-14,70,58,46,64,59,45,100,78,55,30.04,29.96,29.92,10,6,1,21,5,29,1.35,6,Rain-Thunderstorm,291
2014-1-15,62,51,40,46,40,35,100,68,36,30.08,30.00,29.95,10,10,6,15,5,20,T,1,,277
2014-1-16,51,42,32,38,25,17,75,51,27,30.18,30.12,30.02,10,10,10,16,7,21,T,1,Rain,301
2014-1-17,66,48,30,52,40,28,92,68,44,30.21,30.13,30.07,10,10,10,17,7,23,0.00,2,,241
2014-1-18,54,43,32,50,22,12,100,61,21,30.31,30.20,30.10,10,10,10,16,7,24,0.00,0,,287
2014-1-19,63,46,29,52,41,26,93,72,51,30.21,30.16,30.10,10,8,1,17,6,23,0.02,2,Rain,242
2014-1-20,67,50,33,47,38,33,100,65,29,30.16,30.11,30.03,10,5,0,13,4,30,0.00,2,Fog,242
2014-1-21,69,58,46,58,50,26,100,71,41,30.01,29.86,29.75,10,10,6,24,11,32,T,3,Rain,248
2014-1-22,50,40,29,27,21,15,78,51,24,30.22,30.11,29.95,10,10,10,16,7,23,0.00,0,,297
2014-1-23,57,43,28,30,23,13,92,58,23,30.41,30.33,30.21,10,10,10,12,5,16,0.00,0,,338
2014-1-24,52,44,35,28,18,8,64,41,18,30.53,30.44,30.34,10,10,10,15,8,20,0.00,2,,26
2014-1-25,63,51,38,51,40,27,89,70,51,30.33,30.14,30.01,10,10,10,17,6,24,T,7,Rain,238
2014-1-26,65,52,39,51,44,40,100,72,44,30.09,30.04,29.98,10,5,0,10,2,15,0.00,2,Fog,255
2014-1-27,75,62,49,55,52,48,93,70,46,30.03,29.99,29.91,10,10,7,16,5,21,T,4,Rain,218
2014-1-28,68,56,44,61,55,42,100,88,76,30.07,30.02,29.98,10,6,2,16,5,21,0.12,8,Rain,40
2014-1-29,44,40,35,43,38,33,100,90,79,30.28,30.18,30.06,10,8,2,16,9,20,0.37,8,Rain,16
2014-1-30,46,40,34,40,36,32,100,88,76,30.28,30.22,30.16,10,7,2,9,8,,0.12,8,Rain,19
2014-1-31,61,51,40,54,45,35,93,81,69,30.20,30.15,30.10,10,9,2,12,6,16,T,8,Rain,39